sensor_id;sensor_type;location;lat;lon;timestamp;P1;durP1;ratioP1;P2;durP2;ratioP2
33912;SDS011;20200;52.084;5.224;2022-12-29T00:01:34;4.41;;;4.0;;
33912;SDS011;20200;52.084;5.224;2022-12-29T00:03:12;5.3;;;3.7;;
33912;SDS011;20200;52.084;5.224;2022-12-29T00:04:49;5.0;;;4.1;;
33912;SDS011;20200;52.084;5.224;2022-12-29T00:06:26;5.5;;;3.5;;
33912;SDS011;20200;52.084;5.224;2022-12-29T00:09:39;5.2;;;3.9;;
33912;SDS011;20200;52.084;5.224;2022-12-29T00:11:16;5.9;;;3.7;;
33912;SDS011;20200;52.084;5.224;2022-12-29T00:12:55;5.0;;;3.8;;
33912;SDS011;20200;52.084;5.224;2022-12-29T00:16:08;4.5;;;3.4;;
33912;SDS011;20200;52.084;5.224;2022-12-29T00:17:44;4.41;;;3.8;;
33912;SDS011;20200;52.084;5.224;2022-12-29T00:19:20;7.7;;;5.0;;
33912;SDS011;20200;52.084;5.224;2022-12-29T00:22:32;4.8;;;3.5;;
33912;SDS011;20200;52.084;5.224;2022-12-29T00:24:11;5.5;;;3.4;;
33912;SDS011;20200;52.084;5.224;2022-12-29T00:25:50;5.2;;;3.4;;
33912;SDS011;20200;52.084;5.224;2022-12-29T00:27:26;3.8;;;3.2;;
33912;SDS011;20200;52.084;5.224;2022-12-29T00:30:39;3.9;;;3.4;;
33912;SDS011;20200;52.084;5.224;2022-12-29T00:32:16;4.8;;;3.5;;
33912;SDS011;20200;52.084;5.224;2022-12-29T00:33:52;4.91;;;3.5;;
33912;SDS011;20200;52.084;5.224;2022-12-29T00:37:12;4.91;;;3.4;;
33912;SDS011;20200;52.084;5.224;2022-12-29T00:38:49;4.1;;;3.4;;
33912;SDS011;20200;52.084;5.224;2022-12-29T00:40:30;4.3;;;3.2;;
33912;SDS011;20200;52.084;5.224;2022-12-29T00:42:07;4.3;;;3.5;;
33912;SDS011;20200;52.084;5.224;2022-12-29T00:45:21;5.9;;;3.5;;
33912;SDS011;20200;52.084;5.224;2022-12-29T00:46:57;5.3;;;3.4;;
33912;SDS011;20200;52.084;5.224;2022-12-29T00:48:33;3.7;;;3.1;;
33912;SDS011;20200;52.084;5.224;2022-12-29T00:51:46;4.3;;;3.0;;
33912;SDS011;20200;52.084;5.224;2022-12-29T00:53:23;4.8;;;3.0;;
33912;SDS011;20200;52.084;5.224;2022-12-29T00:54:59;5.6;;;3.1;;
33912;SDS011;20200;52.084;5.224;2022-12-29T00:56:35;4.41;;;3.1;;
33912;SDS011;20200;52.084;5.224;2022-12-29T00:59:49;6.1;;;3.1;;
33912;SDS011;20200;52.084;5.224;2022-12-29T01:01:26;4.8;;;2.9;;
33912;SDS011;20200;52.084;5.224;2022-12-29T01:03:02;5.5;;;2.7;;
33912;SDS011;20200;52.084;5.224;2022-12-29T01:06:14;6.4;;;3.0;;
33912;SDS011;20200;52.084;5.224;2022-12-29T01:07:51;5.5;;;2.5;;
33912;SDS011;20200;52.084;5.224;2022-12-29T01:09:27;4.91;;;2.7;;
33912;SDS011;20200;52.084;5.224;2022-12-29T01:12:42;5.11;;;2.6;;
33912;SDS011;20200;52.084;5.224;2022-12-29T01:14:18;4.41;;;2.7;;
33912;SDS011;20200;52.084;5.224;2022-12-29T01:15:55;4.8;;;2.9;;
33912;SDS011;20200;52.084;5.224;2022-12-29T01:17:32;5.3;;;3.0;;
33912;SDS011;20200;52.084;5.224;2022-12-29T01:20:47;6.5;;;3.1;;
33912;SDS011;20200;52.084;5.224;2022-12-29T01:22:24;5.2;;;3.0;;
33912;SDS011;20200;52.084;5.224;2022-12-29T01:24:00;9.0;;;3.4;;
33912;SDS011;20200;52.084;5.224;2022-12-29T01:27:14;8.0;;;3.5;;
33912;SDS011;20200;52.084;5.224;2022-12-29T01:28:50;6.1;;;3.4;;
33912;SDS011;20200;52.084;5.224;2022-12-29T01:30:26;6.7;;;3.5;;
33912;SDS011;20200;52.084;5.224;2022-12-29T01:33:39;5.7;;;3.8;;
33912;SDS011;20200;52.084;5.224;2022-12-29T01:35:17;5.5;;;3.1;;
33912;SDS011;20200;52.084;5.224;2022-12-29T01:36:55;6.1;;;3.4;;
33912;SDS011;20200;52.084;5.224;2022-12-29T01:38:31;5.8;;;3.4;;
33912;SDS011;20200;52.084;5.224;2022-12-29T01:41:46;6.5;;;3.5;;
33912;SDS011;20200;52.084;5.224;2022-12-29T01:43:37;7.1;;;3.8;;
33912;SDS011;20200;52.084;5.224;2022-12-29T01:45:16;5.4;;;3.6;;
33912;SDS011;20200;52.084;5.224;2022-12-29T01:46:53;5.11;;;3.3;;
33912;SDS011;20200;52.084;5.224;2022-12-29T01:50:08;5.3;;;3.6;;
33912;SDS011;20200;52.084;5.224;2022-12-29T01:51:50;4.2;;;3.4;;
33912;SDS011;20200;52.084;5.224;2022-12-29T01:53:34;4.7;;;3.1;;
33912;SDS011;20200;52.084;5.224;2022-12-29T01:55:12;4.3;;;3.4;;
33912;SDS011;20200;52.084;5.224;2022-12-29T01:58:28;4.91;;;3.1;;
33912;SDS011;20200;52.084;5.224;2022-12-29T02:00:09;4.8;;;3.1;;
33912;SDS011;20200;52.084;5.224;2022-12-29T02:01:49;4.61;;;3.0;;
33912;SDS011;20200;52.084;5.224;2022-12-29T02:05:07;5.11;;;2.9;;
33912;SDS011;20200;52.084;5.224;2022-12-29T02:06:50;3.6;;;2.9;;
33912;SDS011;20200;52.084;5.224;2022-12-29T02:08:32;5.2;;;2.9;;
33912;SDS011;20200;52.084;5.224;2022-12-29T02:10:08;3.5;;;2.8;;
33912;SDS011;20200;52.084;5.224;2022-12-29T02:13:23;3.8;;;2.6;;
33912;SDS011;20200;52.084;5.224;2022-12-29T02:15:00;6.2;;;2.7;;
33912;SDS011;20200;52.084;5.224;2022-12-29T02:16:46;4.1;;;2.5;;
33912;SDS011;20200;52.084;5.224;2022-12-29T02:18:37;4.2;;;2.7;;
33912;SDS011;20200;52.084;5.224;2022-12-29T02:20:33;4.2;;;2.31;;
33912;SDS011;20200;52.084;5.224;2022-12-29T02:24:15;4.0;;;2.1;;
33912;SDS011;20200;52.084;5.224;2022-12-29T02:27:19;3.8;;;2.21;;
33912;SDS011;20200;52.084;5.224;2022-12-29T02:30:52;5.3;;;2.21;;
33912;SDS011;20200;52.084;5.224;2022-12-29T02:34:27;6.4;;;2.0;;
33912;SDS011;20200;52.084;5.224;2022-12-29T02:36:20;5.2;;;2.1;;
33912;SDS011;20200;52.084;5.224;2022-12-29T02:38:08;6.4;;;2.1;;
33912;SDS011;20200;52.084;5.224;2022-12-29T02:39:56;5.3;;;2.0;;
33912;SDS011;20200;52.084;5.224;2022-12-29T02:41:42;4.61;;;1.8;;
33912;SDS011;20200;52.084;5.224;2022-12-29T02:43:40;5.4;;;1.8;;
33912;SDS011;20200;52.084;5.224;2022-12-29T02:45:30;7.8;;;2.0;;
33912;SDS011;20200;52.084;5.224;2022-12-29T02:49:03;7.2;;;1.7;;
33912;SDS011;20200;52.084;5.224;2022-12-29T02:50:47;5.7;;;1.7;;
33912;SDS011;20200;52.084;5.224;2022-12-29T02:52:34;4.61;;;1.7;;
33912;SDS011;20200;52.084;5.224;2022-12-29T02:54:16;5.4;;;1.3;;
33912;SDS011;20200;52.084;5.224;2022-12-29T02:55:53;8.0;;;1.7;;
33912;SDS011;20200;52.084;5.224;2022-12-29T02:59:08;5.5;;;1.3;;
33912;SDS011;20200;52.084;5.224;2022-12-29T03:00:50;5.5;;;1.4;;
33912;SDS011;20200;52.084;5.224;2022-12-29T03:02:58;5.5;;;1.5;;
33912;SDS011;20200;52.084;5.224;2022-12-29T03:04:54;5.6;;;1.4;;
33912;SDS011;20200;52.084;5.224;2022-12-29T03:06:54;6.1;;;1.4;;
33912;SDS011;20200;52.084;5.224;2022-12-29T03:08:40;6.4;;;1.3;;
33912;SDS011;20200;52.084;5.224;2022-12-29T03:12:17;6.7;;;1.5;;
33912;SDS011;20200;52.084;5.224;2022-12-29T03:14:07;4.0;;;1.3;;
33912;SDS011;20200;52.084;5.224;2022-12-29T03:15:54;7.2;;;1.7;;
33912;SDS011;20200;52.084;5.224;2022-12-29T03:17:39;7.0;;;1.5;;
33912;SDS011;20200;52.084;5.224;2022-12-29T03:19:26;4.1;;;1.4;;
33912;SDS011;20200;52.084;5.224;2022-12-29T03:21:08;5.11;;;1.6;;
33912;SDS011;20200;52.084;5.224;2022-12-29T03:24:34;10.0;;;2.0;;
33912;SDS011;20200;52.084;5.224;2022-12-29T03:26:26;6.1;;;1.7;;
33912;SDS011;20200;52.084;5.224;2022-12-29T03:28:05;4.7;;;1.4;;
33912;SDS011;20200;52.084;5.224;2022-12-29T03:29:46;4.41;;;1.3;;
33912;SDS011;20200;52.084;5.224;2022-12-29T03:33:03;4.2;;;1.3;;
33912;SDS011;20200;52.084;5.224;2022-12-29T03:34:45;4.1;;;1.5;;
33912;SDS011;20200;52.084;5.224;2022-12-29T03:36:26;5.7;;;1.5;;
33912;SDS011;20200;52.084;5.224;2022-12-29T03:38:13;5.0;;;1.5;;
33912;SDS011;20200;52.084;5.224;2022-12-29T03:39:54;5.0;;;1.4;;
33912;SDS011;20200;52.084;5.224;2022-12-29T03:43:09;6.0;;;1.7;;
33912;SDS011;20200;52.084;5.224;2022-12-29T03:44:48;7.2;;;1.6;;
33912;SDS011;20200;52.084;5.224;2022-12-29T03:46:29;6.2;;;1.5;;
33912;SDS011;20200;52.084;5.224;2022-12-29T03:48:06;5.8;;;1.8;;
33912;SDS011;20200;52.084;5.224;2022-12-29T03:51:19;6.1;;;1.5;;
33912;SDS011;20200;52.084;5.224;2022-12-29T03:52:59;4.5;;;1.5;;
33912;SDS011;20200;52.084;5.224;2022-12-29T03:54:35;7.3;;;1.8;;
33912;SDS011;20200;52.084;5.224;2022-12-29T03:57:47;6.5;;;1.7;;
33912;SDS011;20200;52.084;5.224;2022-12-29T03:59:23;6.0;;;1.6;;
33912;SDS011;20200;52.084;5.224;2022-12-29T04:01:00;7.9;;;1.9;;
33912;SDS011;20200;52.084;5.224;2022-12-29T04:04:12;6.5;;;1.9;;
33912;SDS011;20200;52.084;5.224;2022-12-29T04:05:49;8.81;;;2.1;;
33912;SDS011;20200;52.084;5.224;2022-12-29T04:07:25;7.6;;;2.1;;
33912;SDS011;20200;52.084;5.224;2022-12-29T04:09:02;9.1;;;2.6;;
33912;SDS011;20200;52.084;5.224;2022-12-29T04:12:16;10.4;;;2.4;;
33912;SDS011;20200;52.084;5.224;2022-12-29T04:13:52;7.7;;;2.5;;
33912;SDS011;20200;52.084;5.224;2022-12-29T04:15:28;8.31;;;2.31;;
33912;SDS011;20200;52.084;5.224;2022-12-29T04:18:42;8.2;;;2.21;;
33912;SDS011;20200;52.084;5.224;2022-12-29T04:20:19;7.3;;;2.31;;
33912;SDS011;20200;52.084;5.224;2022-12-29T04:21:55;7.0;;;2.1;;
33912;SDS011;20200;52.084;5.224;2022-12-29T04:25:10;8.6;;;2.21;;
33912;SDS011;20200;52.084;5.224;2022-12-29T04:26:47;10.0;;;2.7;;
33912;SDS011;20200;52.084;5.224;2022-12-29T04:28:23;8.71;;;2.0;;
33912;SDS011;20200;52.084;5.224;2022-12-29T04:30:00;8.5;;;2.4;;
33912;SDS011;20200;52.084;5.224;2022-12-29T04:33:13;9.5;;;2.31;;
33912;SDS011;20200;52.084;5.224;2022-12-29T04:34:50;11.7;;;2.6;;
33912;SDS011;20200;52.084;5.224;2022-12-29T04:36:26;10.1;;;2.21;;
33912;SDS011;20200;52.084;5.224;2022-12-29T04:39:39;13.0;;;2.7;;
33912;SDS011;20200;52.084;5.224;2022-12-29T04:41:15;10.8;;;2.5;;
33912;SDS011;20200;52.084;5.224;2022-12-29T04:42:51;13.2;;;3.0;;
33912;SDS011;20200;52.084;5.224;2022-12-29T04:46:04;15.1;;;2.9;;
33912;SDS011;20200;52.084;5.224;2022-12-29T04:47:41;15.4;;;3.1;;
33912;SDS011;20200;52.084;5.224;2022-12-29T04:49:17;15.9;;;3.0;;
33912;SDS011;20200;52.084;5.224;2022-12-29T04:50:53;11.7;;;2.6;;
33912;SDS011;20200;52.084;5.224;2022-12-29T04:54:07;13.3;;;3.2;;
33912;SDS011;20200;52.084;5.224;2022-12-29T04:55:47;12.7;;;2.6;;
33912;SDS011;20200;52.084;5.224;2022-12-29T04:57:24;13.8;;;2.6;;
33912;SDS011;20200;52.084;5.224;2022-12-29T05:00:38;16.11;;;3.3;;
33912;SDS011;20200;52.084;5.224;2022-12-29T05:02:14;15.5;;;3.3;;
33912;SDS011;20200;52.084;5.224;2022-12-29T05:03:51;13.3;;;3.1;;
33912;SDS011;20200;52.084;5.224;2022-12-29T05:07:04;16.3;;;3.1;;
33912;SDS011;20200;52.084;5.224;2022-12-29T05:08:41;17.11;;;3.2;;
33912;SDS011;20200;52.084;5.224;2022-12-29T05:10:18;14.0;;;3.0;;
33912;SDS011;20200;52.084;5.224;2022-12-29T05:11:54;14.0;;;2.9;;
33912;SDS011;20200;52.084;5.224;2022-12-29T05:15:07;14.2;;;3.0;;
33912;SDS011;20200;52.084;5.224;2022-12-29T05:16:45;13.9;;;3.5;;
33912;SDS011;20200;52.084;5.224;2022-12-29T05:18:21;18.8;;;3.6;;
33912;SDS011;20200;52.084;5.224;2022-12-29T05:21:35;17.8;;;3.6;;
33912;SDS011;20200;52.084;5.224;2022-12-29T05:23:12;18.41;;;4.1;;
33912;SDS011;20200;52.084;5.224;2022-12-29T05:24:49;18.7;;;3.9;;
33912;SDS011;20200;52.084;5.224;2022-12-29T05:28:01;18.91;;;3.7;;
33912;SDS011;20200;52.084;5.224;2022-12-29T05:29:38;15.3;;;3.7;;
33912;SDS011;20200;52.084;5.224;2022-12-29T05:31:15;18.2;;;3.9;;
33912;SDS011;20200;52.084;5.224;2022-12-29T05:32:51;20.8;;;3.7;;
33912;SDS011;20200;52.084;5.224;2022-12-29T05:36:06;16.0;;;3.7;;
33912;SDS011;20200;52.084;5.224;2022-12-29T05:37:44;21.4;;;4.1;;
33912;SDS011;20200;52.084;5.224;2022-12-29T05:39:20;17.8;;;3.6;;
33912;SDS011;20200;52.084;5.224;2022-12-29T05:42:33;14.9;;;3.2;;
33912;SDS011;20200;52.084;5.224;2022-12-29T05:44:09;18.8;;;4.2;;
33912;SDS011;20200;52.084;5.224;2022-12-29T05:45:47;20.7;;;4.41;;
33912;SDS011;20200;52.084;5.224;2022-12-29T05:47:24;16.3;;;3.5;;
33912;SDS011;20200;52.084;5.224;2022-12-29T05:50:37;20.6;;;3.6;;
33912;SDS011;20200;52.084;5.224;2022-12-29T05:52:13;20.5;;;4.2;;
33912;SDS011;20200;52.084;5.224;2022-12-29T05:53:49;17.8;;;3.6;;
33912;SDS011;20200;52.084;5.224;2022-12-29T05:57:02;21.7;;;4.0;;
33912;SDS011;20200;52.084;5.224;2022-12-29T05:58:39;16.7;;;3.4;;
33912;SDS011;20200;52.084;5.224;2022-12-29T06:00:16;15.8;;;3.5;;
33912;SDS011;20200;52.084;5.224;2022-12-29T06:03:28;17.41;;;4.0;;
33912;SDS011;20200;52.084;5.224;2022-12-29T06:05:04;18.0;;;3.5;;
33912;SDS011;20200;52.084;5.224;2022-12-29T06:06:41;22.3;;;4.0;;
33912;SDS011;20200;52.084;5.224;2022-12-29T06:08:19;18.7;;;3.9;;
33912;SDS011;20200;52.084;5.224;2022-12-29T06:11:32;24.1;;;4.1;;
33912;SDS011;20200;52.084;5.224;2022-12-29T06:13:08;21.0;;;4.5;;
33912;SDS011;20200;52.084;5.224;2022-12-29T06:14:45;21.6;;;4.41;;
33912;SDS011;20200;52.084;5.224;2022-12-29T06:17:58;18.8;;;4.3;;
33912;SDS011;20200;52.084;5.224;2022-12-29T06:19:35;21.4;;;4.0;;
33912;SDS011;20200;52.084;5.224;2022-12-29T06:21:12;23.1;;;4.41;;
33912;SDS011;20200;52.084;5.224;2022-12-29T06:24:25;22.4;;;4.41;;
33912;SDS011;20200;52.084;5.224;2022-12-29T06:26:01;20.41;;;4.7;;
33912;SDS011;20200;52.084;5.224;2022-12-29T06:27:40;23.1;;;4.1;;
33912;SDS011;20200;52.084;5.224;2022-12-29T06:29:17;22.1;;;4.61;;
33912;SDS011;20200;52.084;5.224;2022-12-29T06:32:29;25.9;;;4.7;;
33912;SDS011;20200;52.084;5.224;2022-12-29T06:34:05;20.0;;;4.1;;
33912;SDS011;20200;52.084;5.224;2022-12-29T06:35:43;20.41;;;4.0;;
33912;SDS011;20200;52.084;5.224;2022-12-29T06:38:56;26.4;;;5.2;;
33912;SDS011;20200;52.084;5.224;2022-12-29T06:40:33;21.9;;;4.5;;
33912;SDS011;20200;52.084;5.224;2022-12-29T06:42:10;24.4;;;4.61;;
33912;SDS011;20200;52.084;5.224;2022-12-29T06:45:22;20.5;;;4.7;;
33912;SDS011;20200;52.084;5.224;2022-12-29T06:47:00;24.3;;;5.0;;
33912;SDS011;20200;52.084;5.224;2022-12-29T06:48:37;21.7;;;4.5;;
33912;SDS011;20200;52.084;5.224;2022-12-29T06:50:13;21.3;;;4.7;;
33912;SDS011;20200;52.084;5.224;2022-12-29T06:53:28;19.91;;;4.2;;
33912;SDS011;20200;52.084;5.224;2022-12-29T06:55:04;21.3;;;4.3;;
33912;SDS011;20200;52.084;5.224;2022-12-29T06:58:20;23.7;;;4.41;;
33912;SDS011;20200;52.084;5.224;2022-12-29T06:59:56;20.6;;;4.41;;
33912;SDS011;20200;52.084;5.224;2022-12-29T07:01:32;17.8;;;4.3;;
33912;SDS011;20200;52.084;5.224;2022-12-29T07:03:09;22.4;;;4.5;;
33912;SDS011;20200;52.084;5.224;2022-12-29T07:04:45;23.1;;;4.61;;
33912;SDS011;20200;52.084;5.224;2022-12-29T07:07:59;20.11;;;5.3;;
33912;SDS011;20200;52.084;5.224;2022-12-29T07:09:36;20.9;;;4.91;;
33912;SDS011;20200;52.084;5.224;2022-12-29T07:11:12;21.1;;;4.2;;
33912;SDS011;20200;52.084;5.224;2022-12-29T07:14:25;17.61;;;3.6;;
33912;SDS011;20200;52.084;5.224;2022-12-29T07:16:04;21.8;;;4.0;;
33912;SDS011;20200;52.084;5.224;2022-12-29T07:17:41;17.5;;;3.8;;
33912;SDS011;20200;52.084;5.224;2022-12-29T07:20:55;15.7;;;3.3;;
33912;SDS011;20200;52.084;5.224;2022-12-29T07:22:32;19.8;;;3.9;;
33912;SDS011;20200;52.084;5.224;2022-12-29T07:24:08;20.11;;;3.8;;
33912;SDS011;20200;52.084;5.224;2022-12-29T07:25:45;18.2;;;4.0;;
33912;SDS011;20200;52.084;5.224;2022-12-29T07:28:59;20.3;;;3.9;;
33912;SDS011;20200;52.084;5.224;2022-12-29T07:30:36;19.61;;;3.8;;
33912;SDS011;20200;52.084;5.224;2022-12-29T07:32:14;17.7;;;3.6;;
33912;SDS011;20200;52.084;5.224;2022-12-29T07:35:27;13.6;;;3.3;;
33912;SDS011;20200;52.084;5.224;2022-12-29T07:37:03;18.0;;;3.7;;
33912;SDS011;20200;52.084;5.224;2022-12-29T07:38:41;18.3;;;3.8;;
33912;SDS011;20200;52.084;5.224;2022-12-29T07:40:19;19.61;;;4.1;;
33912;SDS011;20200;52.084;5.224;2022-12-29T07:43:32;20.0;;;4.1;;
33912;SDS011;20200;52.084;5.224;2022-12-29T07:45:10;16.5;;;3.7;;
33912;SDS011;20200;52.084;5.224;2022-12-29T07:46:47;18.61;;;4.0;;
33912;SDS011;20200;52.084;5.224;2022-12-29T07:49:59;16.9;;;4.0;;
33912;SDS011;20200;52.084;5.224;2022-12-29T07:51:36;22.1;;;4.2;;
33912;SDS011;20200;52.084;5.224;2022-12-29T07:53:13;16.7;;;3.9;;
33912;SDS011;20200;52.084;5.224;2022-12-29T07:56:27;16.7;;;4.1;;
33912;SDS011;20200;52.084;5.224;2022-12-29T07:58:04;18.7;;;4.2;;
33912;SDS011;20200;52.084;5.224;2022-12-29T07:59:40;18.0;;;4.3;;
33912;SDS011;20200;52.084;5.224;2022-12-29T08:01:16;20.11;;;5.2;;
33912;SDS011;20200;52.084;5.224;2022-12-29T08:04:28;22.3;;;4.7;;
33912;SDS011;20200;52.084;5.224;2022-12-29T08:06:05;25.5;;;4.5;;
33912;SDS011;20200;52.084;5.224;2022-12-29T08:07:44;21.7;;;4.1;;
33912;SDS011;20200;52.084;5.224;2022-12-29T08:10:57;18.2;;;4.1;;
33912;SDS011;20200;52.084;5.224;2022-12-29T08:12:34;18.3;;;4.2;;
33912;SDS011;20200;52.084;5.224;2022-12-29T08:14:10;23.0;;;4.7;;
33912;SDS011;20200;52.084;5.224;2022-12-29T08:17:23;22.9;;;4.7;;
33912;SDS011;20200;52.084;5.224;2022-12-29T08:18:59;22.5;;;4.61;;
33912;SDS011;20200;52.084;5.224;2022-12-29T08:20:35;23.7;;;4.7;;
33912;SDS011;20200;52.084;5.224;2022-12-29T08:22:12;24.4;;;4.61;;
33912;SDS011;20200;52.084;5.224;2022-12-29T08:25:25;22.4;;;5.11;;
33912;SDS011;20200;52.084;5.224;2022-12-29T08:27:01;23.4;;;4.7;;
33912;SDS011;20200;52.084;5.224;2022-12-29T08:28:37;23.8;;;4.8;;
33912;SDS011;20200;52.084;5.224;2022-12-29T08:31:51;27.0;;;4.5;;
33912;SDS011;20200;52.084;5.224;2022-12-29T08:33:27;25.8;;;5.6;;
33912;SDS011;20200;52.084;5.224;2022-12-29T08:35:04;22.2;;;4.3;;
33912;SDS011;20200;52.084;5.224;2022-12-29T08:38:18;21.7;;;4.2;;
33912;SDS011;20200;52.084;5.224;2022-12-29T08:39:55;25.9;;;5.6;;
33912;SDS011;20200;52.084;5.224;2022-12-29T08:41:31;22.1;;;4.7;;
33912;SDS011;20200;52.084;5.224;2022-12-29T08:43:07;23.6;;;4.7;;
33912;SDS011;20200;52.084;5.224;2022-12-29T08:46:20;24.8;;;4.91;;
33912;SDS011;20200;52.084;5.224;2022-12-29T08:47:57;21.1;;;4.61;;
33912;SDS011;20200;52.084;5.224;2022-12-29T08:49:33;23.6;;;4.91;;
33912;SDS011;20200;52.084;5.224;2022-12-29T08:52:45;20.8;;;4.61;;
33912;SDS011;20200;52.084;5.224;2022-12-29T08:54:22;20.5;;;4.61;;
33912;SDS011;20200;52.084;5.224;2022-12-29T08:55:58;25.8;;;5.11;;
33912;SDS011;20200;52.084;5.224;2022-12-29T08:59:12;24.5;;;5.0;;
33912;SDS011;20200;52.084;5.224;2022-12-29T09:00:51;22.1;;;4.61;;
33912;SDS011;20200;52.084;5.224;2022-12-29T09:02:27;23.4;;;4.8;;
33912;SDS011;20200;52.084;5.224;2022-12-29T09:04:04;23.3;;;4.8;;
33912;SDS011;20200;52.084;5.224;2022-12-29T09:07:16;23.9;;;4.8;;
33912;SDS011;20200;52.084;5.224;2022-12-29T09:08:53;21.3;;;4.8;;
33912;SDS011;20200;52.084;5.224;2022-12-29T09:10:29;23.2;;;4.91;;
33912;SDS011;20200;52.084;5.224;2022-12-29T09:13:43;24.0;;;4.61;;
33912;SDS011;20200;52.084;5.224;2022-12-29T09:15:20;22.8;;;5.0;;
33912;SDS011;20200;52.084;5.224;2022-12-29T09:18:32;26.7;;;4.91;;
33912;SDS011;20200;52.084;5.224;2022-12-29T09:20:10;18.61;;;4.1;;
33912;SDS011;20200;52.084;5.224;2022-12-29T09:21:46;18.41;;;4.5;;
33912;SDS011;20200;52.084;5.224;2022-12-29T09:23:23;23.0;;;4.7;;
33912;SDS011;20200;52.084;5.224;2022-12-29T09:25:00;24.6;;;4.91;;
33912;SDS011;20200;52.084;5.224;2022-12-29T09:28:12;21.5;;;4.5;;
33912;SDS011;20200;52.084;5.224;2022-12-29T09:29:48;19.7;;;4.2;;
33912;SDS011;20200;52.084;5.224;2022-12-29T09:31:25;21.8;;;5.11;;
33912;SDS011;20200;52.084;5.224;2022-12-29T09:34:39;20.3;;;4.61;;
33912;SDS011;20200;52.084;5.224;2022-12-29T09:36:15;22.9;;;4.3;;
33912;SDS011;20200;52.084;5.224;2022-12-29T09:37:52;21.8;;;4.41;;
33912;SDS011;20200;52.084;5.224;2022-12-29T09:41:05;22.8;;;4.8;;
33912;SDS011;20200;52.084;5.224;2022-12-29T09:42:53;25.3;;;4.41;;
33912;SDS011;20200;52.084;5.224;2022-12-29T09:44:48;22.9;;;4.7;;
33912;SDS011;20200;52.084;5.224;2022-12-29T09:46:37;21.8;;;4.91;;
33912;SDS011;20200;52.084;5.224;2022-12-29T09:48:18;24.9;;;4.1;;
33912;SDS011;20200;52.084;5.224;2022-12-29T09:51:41;19.7;;;4.7;;
33912;SDS011;20200;52.084;5.224;2022-12-29T09:53:24;23.8;;;4.8;;
33912;SDS011;20200;52.084;5.224;2022-12-29T09:55:08;22.0;;;4.5;;
33912;SDS011;20200;52.084;5.224;2022-12-29T09:56:49;22.1;;;4.3;;
33912;SDS011;20200;52.084;5.224;2022-12-29T10:00:13;17.61;;;4.2;;
33912;SDS011;20200;52.084;5.224;2022-12-29T10:01:53;20.5;;;4.2;;
33912;SDS011;20200;52.084;5.224;2022-12-29T10:03:37;20.11;;;4.3;;
33912;SDS011;20200;52.084;5.224;2022-12-29T10:05:27;19.8;;;4.3;;
33912;SDS011;20200;52.084;5.224;2022-12-29T10:07:13;18.11;;;4.41;;
33912;SDS011;20200;52.084;5.224;2022-12-29T10:09:01;17.7;;;4.1;;
33912;SDS011;20200;52.084;5.224;2022-12-29T10:12:31;20.11;;;4.3;;
33912;SDS011;20200;52.084;5.224;2022-12-29T10:14:29;18.5;;;4.3;;
33912;SDS011;20200;52.084;5.224;2022-12-29T10:16:18;17.41;;;4.3;;
33912;SDS011;20200;52.084;5.224;2022-12-29T10:18:03;14.6;;;3.8;;
33912;SDS011;20200;52.084;5.224;2022-12-29T10:19:57;16.4;;;3.8;;
33912;SDS011;20200;52.084;5.224;2022-12-29T10:21:56;14.4;;;3.8;;
33912;SDS011;20200;52.084;5.224;2022-12-29T10:23:45;16.61;;;3.9;;
33912;SDS011;20200;52.084;5.224;2022-12-29T10:27:10;16.2;;;3.9;;
33912;SDS011;20200;52.084;5.224;2022-12-29T10:28:49;15.1;;;3.8;;
33912;SDS011;20200;52.084;5.224;2022-12-29T10:30:31;16.61;;;4.1;;
33912;SDS011;20200;52.084;5.224;2022-12-29T10:32:12;15.9;;;3.4;;
33912;SDS011;20200;52.084;5.224;2022-12-29T10:34:06;15.3;;;3.3;;
33912;SDS011;20200;52.084;5.224;2022-12-29T10:37:32;20.2;;;4.3;;
33912;SDS011;20200;52.084;5.224;2022-12-29T10:39:19;19.11;;;4.1;;
33912;SDS011;20200;52.084;5.224;2022-12-29T10:41:05;21.4;;;4.41;;
33912;SDS011;20200;52.084;5.224;2022-12-29T10:42:50;21.4;;;4.41;;
33912;SDS011;20200;52.084;5.224;2022-12-29T10:44:29;25.8;;;6.1;;
33912;SDS011;20200;52.084;5.224;2022-12-29T10:47:51;25.4;;;5.6;;
33912;SDS011;20200;52.084;5.224;2022-12-29T10:51:18;27.5;;;6.0;;
33912;SDS011;20200;52.084;5.224;2022-12-29T10:53:02;33.0;;;6.8;;
33912;SDS011;20200;52.084;5.224;2022-12-29T10:56:28;32.1;;;7.1;;
33912;SDS011;20200;52.084;5.224;2022-12-29T10:58:10;38.71;;;7.8;;
33912;SDS011;20200;52.084;5.224;2022-12-29T10:59:50;31.7;;;7.5;;
33912;SDS011;20200;52.084;5.224;2022-12-29T11:01:28;28.2;;;7.1;;
33912;SDS011;20200;52.084;5.224;2022-12-29T11:05:23;32.71;;;7.3;;
33912;SDS011;20200;52.084;5.224;2022-12-29T11:08:50;34.9;;;8.0;;
33912;SDS011;20200;52.084;5.224;2022-12-29T11:10:35;35.31;;;7.6;;
33912;SDS011;20200;52.084;5.224;2022-12-29T11:12:18;29.0;;;6.9;;
33912;SDS011;20200;52.084;5.224;2022-12-29T11:13:57;31.2;;;7.4;;
33912;SDS011;20200;52.084;5.224;2022-12-29T11:17:17;31.4;;;7.1;;
33912;SDS011;20200;52.084;5.224;2022-12-29T11:18:53;30.6;;;7.3;;
33912;SDS011;20200;52.084;5.224;2022-12-29T11:20:31;37.5;;;7.5;;
33912;SDS011;20200;52.084;5.224;2022-12-29T11:22:13;33.9;;;7.6;;
33912;SDS011;20200;52.084;5.224;2022-12-29T11:25:34;37.5;;;7.5;;
33912;SDS011;20200;52.084;5.224;2022-12-29T11:30:23;32.1;;;7.1;;
33912;SDS011;20200;52.084;5.224;2022-12-29T11:32:04;33.1;;;7.8;;
33912;SDS011;20200;52.084;5.224;2022-12-29T11:33:47;34.81;;;7.5;;
33912;SDS011;20200;52.084;5.224;2022-12-29T11:35:33;37.6;;;7.5;;
33912;SDS011;20200;52.084;5.224;2022-12-29T11:37:12;34.21;;;7.0;;
33912;SDS011;20200;52.084;5.224;2022-12-29T11:38:53;31.8;;;7.3;;
33912;SDS011;20200;52.084;5.224;2022-12-29T11:42:15;29.2;;;6.8;;
33912;SDS011;20200;52.084;5.224;2022-12-29T11:43:56;30.4;;;6.5;;
33912;SDS011;20200;52.084;5.224;2022-12-29T11:45:35;31.0;;;7.1;;
33912;SDS011;20200;52.084;5.224;2022-12-29T11:47:13;30.6;;;6.9;;
33912;SDS011;20200;52.084;5.224;2022-12-29T11:50:39;32.6;;;7.3;;
33912;SDS011;20200;52.084;5.224;2022-12-29T11:52:20;40.9;;;7.2;;
33912;SDS011;20200;52.084;5.224;2022-12-29T11:53:59;34.21;;;7.9;;
33912;SDS011;20200;52.084;5.224;2022-12-29T11:55:39;33.6;;;7.7;;
33912;SDS011;20200;52.084;5.224;2022-12-29T11:58:55;36.9;;;8.1;;
33912;SDS011;20200;52.084;5.224;2022-12-29T12:00:34;40.6;;;8.2;;
33912;SDS011;20200;52.084;5.224;2022-12-29T12:03:13;34.71;;;7.4;;
33912;SDS011;20200;52.084;5.224;2022-12-29T12:04:54;37.0;;;7.8;;
33912;SDS011;20200;52.084;5.224;2022-12-29T12:06:39;39.81;;;8.2;;
33912;SDS011;20200;52.084;5.224;2022-12-29T12:08:34;48.3;;;8.81;;
33912;SDS011;20200;52.084;5.224;2022-12-29T12:10:16;37.21;;;8.1;;
33912;SDS011;20200;52.084;5.224;2022-12-29T12:13:39;36.5;;;8.31;;
33912;SDS011;20200;52.084;5.224;2022-12-29T12:15:25;44.7;;;8.4;;
33912;SDS011;20200;52.084;5.224;2022-12-29T12:17:09;39.1;;;8.2;;
33912;SDS011;20200;52.084;5.224;2022-12-29T12:18:51;43.3;;;8.6;;
33912;SDS011;20200;52.084;5.224;2022-12-29T12:22:19;41.8;;;8.71;;
33912;SDS011;20200;52.084;5.224;2022-12-29T12:24:11;36.4;;;7.8;;
33912;SDS011;20200;52.084;5.224;2022-12-29T12:26:12;37.21;;;7.7;;
33912;SDS011;20200;52.084;5.224;2022-12-29T12:27:56;39.31;;;8.6;;
33912;SDS011;20200;52.084;5.224;2022-12-29T12:29:37;40.6;;;8.4;;
33912;SDS011;20200;52.084;5.224;2022-12-29T12:31:27;39.21;;;8.5;;
33912;SDS011;20200;52.084;5.224;2022-12-29T12:35:05;32.8;;;7.0;;
33912;SDS011;20200;52.084;5.224;2022-12-29T12:36:53;40.0;;;8.6;;
33912;SDS011;20200;52.084;5.224;2022-12-29T12:38:43;36.5;;;8.31;;
33912;SDS011;20200;52.084;5.224;2022-12-29T12:40:34;36.6;;;7.8;;
33912;SDS011;20200;52.084;5.224;2022-12-29T12:42:23;38.71;;;7.7;;
33912;SDS011;20200;52.084;5.224;2022-12-29T12:44:12;37.4;;;8.4;;
33912;SDS011;20200;52.084;5.224;2022-12-29T12:46:01;35.1;;;8.0;;
33912;SDS011;20200;52.084;5.224;2022-12-29T12:47:56;35.0;;;8.2;;
33912;SDS011;20200;52.084;5.224;2022-12-29T12:52:13;39.31;;;8.1;;
33912;SDS011;20200;52.084;5.224;2022-12-29T12:56:11;30.7;;;6.8;;
33912;SDS011;20200;52.084;5.224;2022-12-29T12:58:51;31.9;;;7.0;;
33912;SDS011;20200;52.084;5.224;2022-12-29T13:00:39;33.1;;;6.7;;
33912;SDS011;20200;52.084;5.224;2022-12-29T13:04:52;31.5;;;6.8;;